Map

Track Data

SID SEASON NUMBER BASIN SUBBASIN NAME ISO_TIME NATURE LAT LON WMO_WIND WMO_PRES WMO_AGENCY TRACK_TYPE DIST2LAND LANDFALL IFLAG USA_AGENCY USA_ATCF_ID USA_LAT USA_LON USA_RECORD USA_STATUS USA_WIND USA_PRES USA_SSHS USA_R34_NE USA_R34_SE USA_R34_SW USA_R34_NW USA_R50_NE USA_R50_SE USA_R50_SW USA_R50_NW USA_R64_NE USA_R64_SE USA_R64_SW USA_R64_NW USA_POCI USA_ROCI USA_RMW USA_EYE TOKYO_LAT TOKYO_LON TOKYO_GRADE TOKYO_WIND TOKYO_PRES TOKYO_R50_DIR TOKYO_R50_LONG TOKYO_R50_SHORT TOKYO_R30_DIR TOKYO_R30_LONG TOKYO_R30_SHORT TOKYO_LAND CMA_LAT CMA_LON CMA_CAT CMA_WIND CMA_PRES HKO_LAT HKO_LON HKO_CAT HKO_WIND HKO_PRES NEWDELHI_LAT NEWDELHI_LON NEWDELHI_GRADE NEWDELHI_WIND NEWDELHI_PRES NEWDELHI_CI NEWDELHI_DP NEWDELHI_POCI REUNION_LAT REUNION_LON REUNION_TYPE REUNION_WIND REUNION_PRES REUNION_TNUM REUNION_CI REUNION_RMW REUNION_R34_NE REUNION_R34_SE REUNION_R34_SW REUNION_R34_NW REUNION_R50_NE REUNION_R50_SE REUNION_R50_SW REUNION_R50_NW REUNION_R64_NE REUNION_R64_SE REUNION_R64_SW REUNION_R64_NW BOM_LAT BOM_LON BOM_TYPE BOM_WIND BOM_PRES BOM_TNUM BOM_CI BOM_RMW BOM_R34_NE BOM_R34_SE BOM_R34_SW BOM_R34_NW BOM_R50_NE BOM_R50_SE BOM_R50_SW BOM_R50_NW BOM_R64_NE BOM_R64_SE BOM_R64_SW BOM_R64_NW BOM_ROCI BOM_POCI BOM_EYE BOM_POS_METHOD BOM_PRES_METHOD NADI_LAT NADI_LON NADI_CAT NADI_WIND NADI_PRES WELLINGTON_LAT WELLINGTON_LON WELLINGTON_WIND WELLINGTON_PRES DS824_LAT DS824_LON DS824_STAGE DS824_WIND DS824_PRES TD9636_LAT TD9636_LON TD9636_STAGE TD9636_WIND TD9636_PRES TD9635_LAT TD9635_LON TD9635_WIND TD9635_PRES TD9635_ROCI NEUMANN_LAT NEUMANN_LON NEUMANN_CLASS NEUMANN_WIND NEUMANN_PRES MLC_LAT MLC_LON MLC_CLASS MLC_WIND MLC_PRES USA_GUST BOM_GUST BOM_GUST_PER REUNION_GUST REUNION_GUST_PER USA_SEAHGT USA_SEARAD_NE USA_SEARAD_SE USA_SEARAD_SW USA_SEARAD_NW STORM_SPEED STORM_DIR
1896021S12069 1896 3 SI MM NOT_NAMED 1896-01-21 06:00:00 NR -11.5000 68.6000 spur-split 1511 1471 __________O___ -1 -11.5000 68.6000 7 8 236
1896021S12069 1896 3 SI MM NOT_NAMED 1896-01-21 09:00:00 NR -11.7143 68.2799 spur-split 1471 1432 __________P___ -1 -11.7143 68.2799 7 8 236
1896021S12069 1896 3 SI MM NOT_NAMED 1896-01-21 12:00:00 NR -11.9327 67.9577 spur-split 1432 1385 __________P___ -1 -11.9327 67.9577 7 8 235
1896021S12069 1896 3 SI MM NOT_NAMED 1896-01-21 15:00:00 NR -12.1598 67.6316 spur-split 1377 1338 __________P___ -1 -12.1598 67.6316 7 8 234
1896021S12069 1896 3 SI MM NOT_NAMED 1896-01-21 18:00:00 NR -12.4000 67.3000 spur-split 1338 1299 __________O___ -1 -12.4000 67.3000 7 8 233
1896021S12069 1896 3 SI MM NOT_NAMED 1896-01-21 21:00:00 NR -12.6550 66.9629 spur-split 1291 1244 __________P___ -1 -12.6550 66.9629 7 8 232
1896021S12069 1896 3 SI MM NOT_NAMED 1896-01-22 00:00:00 NR -12.9150 66.6276 spur-split 1244 1197 __________P___ -1 -12.9150 66.6276 7 8 231
1896021S12069 1896 3 SI MM NOT_NAMED 1896-01-22 03:00:00 NR -13.1675 66.3035 spur-split 1197 1158 __________P___ -1 -13.1675 66.3035 7 8 232
1896021S12069 1896 3 SI MM NOT_NAMED 1896-01-22 06:00:00 NR -13.4000 66.0000 spur-split 1158 1119 __________O___ -1 -13.4000 66.0000 7 7 233
1896021S12069 1896 3 SI MM NOT_NAMED 1896-01-22 09:00:00 NR -13.5923 65.7281 spur-split 1119 1088 __________P___ -1 -13.5923 65.7281 7 6 234
1896021S12069 1896 3 SI MM NOT_NAMED 1896-01-22 12:00:00 NR -13.7647 65.4771 spur-split 1088 1064 __________P___ -1 -13.7647 65.4771 7 6 235
1896021S12069 1896 3 SI MM NOT_NAMED 1896-01-22 15:00:00 NR -13.9298 65.2375 spur-split 1056 1025 __________P___ -1 -13.9298 65.2375 7 6 234
1896021S12069 1896 3 SI MM NOT_NAMED 1896-01-22 18:00:00 NR -14.1000 65.0000 spur-split 1025 986 __________O___ -1 -14.1000 65.0000 7 6 233
1896021S12069 1896 3 SI MM NOT_NAMED 1896-01-22 21:00:00 NR -14.2928 64.7338 spur-split 986 955 __________P___ -1 -14.2928 64.7338 7 6 233
1896021S12069 1896 3 SI MM NOT_NAMED 1896-01-23 00:00:00 NR -14.4926 64.4700 spur-split 955 916 __________P___ -1 -14.4926 64.4700 7 6 231
1896021S12069 1896 3 SI MM NOT_NAMED 1896-01-23 03:00:00 NR -14.6960 64.2213 spur-split 916 885 __________P___ -1 -14.6960 64.2213 7 6 228
1896021S12069 1896 3 SI MM NOT_NAMED 1896-01-23 06:00:00 NR -14.9000 64.0000 spur-split 885 854 __________O___ -1 -14.9000 64.0000 7 6 224
1896021S12069 1896 3 SI MM NOT_NAMED 1896-01-23 09:00:00 NR -15.1039 63.8130 spur-split 854 832 __________P___ -1 -15.1039 63.8130 7 5 219
1896021S12069 1896 3 SI MM NOT_NAMED 1896-01-23 12:00:00 NR -15.3074 63.6548 spur-split 832 801 __________P___ -1 -15.3074 63.6548 7 5 215
1896021S12069 1896 3 SI MM NOT_NAMED 1896-01-23 15:00:00 NR -15.5071 63.5193 spur-split 801 778 __________P___ -1 -15.5071 63.5193 7 5 212
1896021S12069 1896 3 SI MM NOT_NAMED 1896-01-23 18:00:00 NR -15.7000 63.4000 spur-split 778 755 __________O___ -1 -15.7000 63.4000 7 4 214
1896021S12069 1896 3 SI MM NOT_NAMED 1896-01-23 21:00:00 NR -15.8619 63.2653 spur-split 755 740 __________P___ -1 -15.8619 63.2653 7 4 217
1896021S12069 1896 3 SI MM NOT_NAMED 1896-01-24 00:00:00 NR -16.0200 63.1475 spur-split 732 718 __________P___ -1 -16.0200 63.1475 7 4 211
1896021S12069 1896 3 SI MM NOT_NAMED 1896-01-24 03:00:00 NR -16.1931 63.0560 spur-split 718 696 __________P___ -1 -16.1931 63.0560 7 4 200
1896021S12069 1896 3 SI MM NOT_NAMED 1896-01-24 06:00:00 NR -16.4000 63.0000 spur-split 696 676 __________O___ -1 -16.4000 63.0000 7 5 189
1896021S12069 1896 3 SI MM NOT_NAMED 1896-01-24 09:00:00 NR -16.6681 62.9728 spur-split 676 657 __________P___ -1 -16.6681 62.9728 7 6 183
1896021S12069 1896 3 SI MM NOT_NAMED 1896-01-24 12:00:00 NR -16.9699 62.9825 spur-split 657 640 __________P___ -1 -16.9699 62.9825 7 6 174
1896021S12069 1896 3 SI MM NOT_NAMED 1896-01-24 15:00:00 NR -17.2868 63.0260 spur-split 640 633 __________P___ -1 -17.2868 63.0260 7 6 170
1896021S12069 1896 3 SI MM NOT_NAMED 1896-01-24 18:00:00 NR -17.6000 63.1000 spur-split 633 618 __________O___ -1 -17.6000 63.1000 7 6 168
1896021S12069 1896 3 SI MM NOT_NAMED 1896-01-24 21:00:00 NR -17.8656 63.1522 spur-split 627 618 __________P___ -1 -17.8656 63.1522 7 5 166
1896021S12069 1896 3 SI MM NOT_NAMED 1896-01-25 00:00:00 NR -18.1270 63.2386 spur-split 618 618 __________P___ -1 -18.1270 63.2386 7 6 158
1896021S12069 1896 3 SI MM NOT_NAMED 1896-01-25 03:00:00 NR -18.3998 63.3806 spur-split 624 620 __________P___ -1 -18.3998 63.3806 7 7 149
1896021S12069 1896 3 SI MM NOT_NAMED 1896-01-25 06:00:00 NR -18.7000 63.6000 spur-split 633 630 __________O___ -1 -18.7000 63.6000 7 8 142
1896021S12069 1896 3 SI MM NOT_NAMED 1896-01-25 09:00:00 NR -19.0505 63.9124 spur-split 652 652 __________P___ -1 -19.0505 63.9124 7 10 138
1896021S12069 1896 3 SI MM NOT_NAMED 1896-01-25 12:00:00 NR -19.4278 64.3021 spur-split 687 685 __________P___ -1 -19.4278 64.3021 7 11 134
1896021S12069 1896 3 SI MM NOT_NAMED 1896-01-25 15:00:00 NR -19.8161 64.7408 spur-split 722 722 __________P___ -1 -19.8161 64.7408 7 11 132
1896021S12069 1896 3 SI MM NOT_NAMED 1896-01-25 18:00:00 NR -20.2000 65.2000 spur-split 771 771 __________O___ -1 -20.2000 65.2000 7 12 132
1896021S12069 1896 3 SI MM NOT_NAMED 1896-01-25 21:00:00 NR -20.5899 65.6635 spur-split 823 823 __________P___ -1 -20.5899 65.6635 7 12 131
1896021S12069 1896 3 SI MM NOT_NAMED 1896-01-26 00:00:00 NR -20.9679 66.1366 spur-split 866 866 __________P___ -1 -20.9679 66.1366 7 11 130
1896021S12069 1896 3 SI MM NOT_NAMED 1896-01-26 03:00:00 NR -21.3119 66.5915 spur-split 921 921 __________P___ -1 -21.3119 66.5915 7 10 128
1896021S12069 1896 3 SI MM NOT_NAMED 1896-01-26 06:00:00 NR -21.6000 67.0000 spur-split 966 966 __________O___ -1 -21.6000 67.0000 7 8 125
1896021S12069 1896 3 SI MM NOT_NAMED 1896-01-26 09:00:00 NR -21.8028 67.3346 spur-split 999 999 __________P___ -1 -21.8028 67.3346 7 7 121
1896021S12069 1896 3 SI MM NOT_NAMED 1896-01-26 12:00:00 NR -21.9518 67.6189 spur-split 1033 1033 __________P___ -1 -21.9518 67.6189 7 6 119
1896021S12069 1896 3 SI MM NOT_NAMED 1896-01-26 15:00:00 NR -22.0749 67.8687 spur-split 1065 1065 __________P___ -1 -22.0749 67.8687 7 5 119
1896021S12069 1896 3 SI MM NOT_NAMED 1896-01-26 18:00:00 NR -22.2000 68.1000 spur-split 1087 1087 __________O___ -1 -22.2000 68.1000 7 5 123
1896021S12069 1896 3 SI MM NOT_NAMED 1896-01-26 21:00:00 NR -22.3491 68.3265 spur-split 1110 1110 __________P___ -1 -22.3491 68.3265 7 5 128
1896021S12069 1896 3 SI MM NOT_NAMED 1896-01-27 00:00:00 NR -22.5205 68.5515 spur-split 1144 1144 __________P___ -1 -22.5205 68.5515 7 5 131
1896021S12069 1896 3 SI MM NOT_NAMED 1896-01-27 03:00:00 NR -22.7066 68.7757 spur-split 1168 1168 __________P___ -1 -22.7066 68.7757 7 6 133
1896021S12069 1896 3 SI MM NOT_NAMED 1896-01-27 06:00:00 NR -22.9000 69.0000 spur-split 1193 __________O___ -1 -22.9000 69.0000 7 6 133

About IBTrACS Database

This database is a web-friendly format of International Best Track Archive for Climate Stewardship (IBTrACS), a global best track data archive curated by NOAA dating back to 1842.

Updated: 2021-10-19